Campina Verde, Brazil
Current Conditions -  °F | °C
As of 4:00 PM on Saturday 25 Oct 2014 (Local Time) from SBSR Reporting Station
Light Rain Light Rain  
Wind Chill: 72°   Ceiling: 7000
Heat Index: 72°   Visibility: 4mi
Dew Point: 66°   Wind: 2mph
Humidity: 83%   Direction: 90°E
Pressure: 30.03"   Gusts: NA
Location:  19.54°S, 49.49°W
Report Text: SBSR 251800Z 09002KT 6000 -RA FEW008 SCT010 OVC070 22/19 Q1017
Loading
Personal Weather Stations






























Interactive Weather Map
Tropical Storm Tracking
New forecast layout! Learn more

10-Day Weather Forecast

Advertisements
Track Severe Weather on mobile